sensor_id;sensor_type;location;lat;lon;timestamp;pressure;altitude;pressure_sealevel;temperature;humidity
47430;BME280;33181;49.246;7.372;2022-08-30T00:01:08;99029.81;;;18.80;63.87
47430;BME280;33181;49.246;7.372;2022-08-30T00:03:52;99027.81;;;18.66;64.08
47430;BME280;33181;49.246;7.372;2022-08-30T00:06:20;99026.50;;;18.62;64.33
47430;BME280;33181;49.246;7.372;2022-08-30T00:08:48;99027.34;;;18.54;64.83
47430;BME280;33181;49.246;7.372;2022-08-30T00:11:24;99025.16;;;18.49;65.10
47430;BME280;33181;49.246;7.372;2022-08-30T00:13:52;99030.34;;;18.51;64.87
47430;BME280;33181;49.246;7.372;2022-08-30T00:16:20;99024.69;;;18.46;65.12
47430;BME280;33181;49.246;7.372;2022-08-30T00:18:47;99023.19;;;18.43;65.22
47430;BME280;33181;49.246;7.372;2022-08-30T00:21:13;99024.66;;;18.38;65.13
47430;BME280;33181;49.246;7.372;2022-08-30T00:23:39;99027.34;;;18.21;65.38
47430;BME280;33181;49.246;7.372;2022-08-30T00:26:06;99035.50;;;18.20;65.36
47430;BME280;33181;49.246;7.372;2022-08-30T00:28:33;99032.66;;;18.13;65.72
47430;BME280;33181;49.246;7.372;2022-08-30T00:31:00;99032.31;;;18.08;65.48
47430;BME280;33181;49.246;7.372;2022-08-30T00:33:28;99023.16;;;18.02;65.39
47430;BME280;33181;49.246;7.372;2022-08-30T00:35:54;99027.50;;;18.03;65.41
47430;BME280;33181;49.246;7.372;2022-08-30T00:38:21;99028.50;;;18.11;65.19
47430;BME280;33181;49.246;7.372;2022-08-30T00:40:50;99025.53;;;18.14;65.05
47430;BME280;33181;49.246;7.372;2022-08-30T00:43:22;99026.69;;;18.19;65.28
47430;BME280;33181;49.246;7.372;2022-08-30T00:45:49;99022.19;;;18.20;65.45
47430;BME280;33181;49.246;7.372;2022-08-30T00:48:15;99031.16;;;18.19;65.85
47430;BME280;33181;49.246;7.372;2022-08-30T00:50:55;99031.34;;;18.17;66.20
47430;BME280;33181;49.246;7.372;2022-08-30T00:53:31;99033.16;;;18.09;66.65
47430;BME280;33181;49.246;7.372;2022-08-30T00:55:59;99023.16;;;18.02;66.53
47430;BME280;33181;49.246;7.372;2022-08-30T00:58:31;99022.00;;;17.89;67.66
47430;BME280;33181;49.246;7.372;2022-08-30T01:00:59;99019.13;;;17.74;67.96
47430;BME280;33181;49.246;7.372;2022-08-30T01:03:26;99025.56;;;17.63;68.22
47430;BME280;33181;49.246;7.372;2022-08-30T01:05:52;99026.41;;;17.64;68.15
47430;BME280;33181;49.246;7.372;2022-08-30T01:08:19;99033.72;;;17.70;68.03
47430;BME280;33181;49.246;7.372;2022-08-30T01:10:49;99043.34;;;17.71;67.87
47430;BME280;33181;49.246;7.372;2022-08-30T01:13:16;99038.38;;;17.76;67.93
47430;BME280;33181;49.246;7.372;2022-08-30T01:15:43;99028.44;;;17.78;67.78
47430;BME280;33181;49.246;7.372;2022-08-30T01:18:13;99025.78;;;17.78;68.03
47430;BME280;33181;49.246;7.372;2022-08-30T01:21:07;99022.44;;;17.76;68.04
47430;BME280;33181;49.246;7.372;2022-08-30T01:23:39;99028.44;;;17.78;67.84
47430;BME280;33181;49.246;7.372;2022-08-30T01:26:06;99034.22;;;17.73;68.30
47430;BME280;33181;49.246;7.372;2022-08-30T01:28:33;99030.41;;;17.76;68.19
47430;BME280;33181;49.246;7.372;2022-08-30T01:31:00;99023.28;;;17.76;68.08
47430;BME280;33181;49.246;7.372;2022-08-30T01:33:26;99018.81;;;17.77;67.91
47430;BME280;33181;49.246;7.372;2022-08-30T01:36:01;99026.09;;;17.75;67.96
47430;BME280;33181;49.246;7.372;2022-08-30T01:38:35;99026.09;;;17.75;67.77
47430;BME280;33181;49.246;7.372;2022-08-30T01:41:30;99025.75;;;17.70;67.85
47430;BME280;33181;49.246;7.372;2022-08-30T01:44:01;99032.06;;;17.69;67.83
47430;BME280;33181;49.246;7.372;2022-08-30T01:46:32;99026.06;;;17.67;67.89
47430;BME280;33181;49.246;7.372;2022-08-30T01:49:06;99024.56;;;17.64;68.16
47430;BME280;33181;49.246;7.372;2022-08-30T01:51:33;99030.38;;;17.59;68.29
47430;BME280;33181;49.246;7.372;2022-08-30T01:53:59;99024.72;;;17.54;68.46
47430;BME280;33181;49.246;7.372;2022-08-30T01:56:28;99025.53;;;17.55;68.45
47430;BME280;33181;49.246;7.372;2022-08-30T01:58:55;99022.06;;;17.54;68.34
47430;BME280;33181;49.246;7.372;2022-08-30T02:01:24;99017.88;;;17.44;68.78
47430;BME280;33181;49.246;7.372;2022-08-30T02:03:53;99015.88;;;17.46;68.62
47430;BME280;33181;49.246;7.372;2022-08-30T02:06:20;99015.69;;;17.39;68.91
47430;BME280;33181;49.246;7.372;2022-08-30T02:08:47;99023.66;;;17.39;68.98
47430;BME280;33181;49.246;7.372;2022-08-30T02:11:14;99014.38;;;17.35;69.38
47430;BME280;33181;49.246;7.372;2022-08-30T02:13:42;99013.03;;;17.39;69.32
47430;BME280;33181;49.246;7.372;2022-08-30T02:16:13;99014.88;;;17.38;69.38
47430;BME280;33181;49.246;7.372;2022-08-30T02:18:40;99007.91;;;17.37;69.07
47430;BME280;33181;49.246;7.372;2022-08-30T02:21:07;99021.19;;;17.37;68.95
47430;BME280;33181;49.246;7.372;2022-08-30T02:23:33;99011.53;;;17.36;68.84
47430;BME280;33181;49.246;7.372;2022-08-30T02:25:59;99008.22;;;17.34;68.63
47430;BME280;33181;49.246;7.372;2022-08-30T02:28:26;99019.47;;;17.28;68.70
47430;BME280;33181;49.246;7.372;2022-08-30T02:30:52;99022.59;;;17.24;69.01
47430;BME280;33181;49.246;7.372;2022-08-30T02:33:19;99018.97;;;17.25;69.12
47430;BME280;33181;49.246;7.372;2022-08-30T02:35:44;99012.16;;;17.22;69.23
47430;BME280;33181;49.246;7.372;2022-08-30T02:38:11;99009.31;;;17.16;69.19
47430;BME280;33181;49.246;7.372;2022-08-30T02:40:37;99007.75;;;17.05;69.86
47430;BME280;33181;49.246;7.372;2022-08-30T02:43:03;99001.91;;;16.93;70.17
47430;BME280;33181;49.246;7.372;2022-08-30T02:45:29;99000.72;;;16.87;70.42
47430;BME280;33181;49.246;7.372;2022-08-30T02:47:55;99002.00;;;16.83;70.59
47430;BME280;33181;49.246;7.372;2022-08-30T02:50:24;99000.72;;;16.87;70.45
47430;BME280;33181;49.246;7.372;2022-08-30T02:52:51;99004.34;;;16.86;70.54
47430;BME280;33181;49.246;7.372;2022-08-30T02:55:17;99004.19;;;16.88;70.65
47430;BME280;33181;49.246;7.372;2022-08-30T02:57:43;99004.72;;;16.91;70.49
47430;BME280;33181;49.246;7.372;2022-08-30T03:00:13;98998.41;;;16.92;70.56
47430;BME280;33181;49.246;7.372;2022-08-30T03:02:39;98995.72;;;16.84;70.74
47430;BME280;33181;49.246;7.372;2022-08-30T03:05:07;99001.53;;;16.62;71.11
47430;BME280;33181;49.246;7.372;2022-08-30T03:07:33;98994.81;;;16.50;71.61
47430;BME280;33181;49.246;7.372;2022-08-30T03:09:59;99002.09;;;16.48;71.79
47430;BME280;33181;49.246;7.372;2022-08-30T03:12:25;98989.19;;;16.53;71.53
47430;BME280;33181;49.246;7.372;2022-08-30T03:14:51;98983.41;;;16.57;71.34
47430;BME280;33181;49.246;7.372;2022-08-30T03:17:17;98993.88;;;16.59;71.14
47430;BME280;33181;49.246;7.372;2022-08-30T03:19:43;98998.66;;;16.55;71.77
47430;BME280;33181;49.246;7.372;2022-08-30T03:22:11;98993.69;;;16.52;71.91
47430;BME280;33181;49.246;7.372;2022-08-30T03:24:37;98992.38;;;16.56;72.16
47430;BME280;33181;49.246;7.372;2022-08-30T03:27:03;98993.88;;;16.59;71.88
47430;BME280;33181;49.246;7.372;2022-08-30T03:29:29;98996.53;;;16.59;71.63
47430;BME280;33181;49.246;7.372;2022-08-30T03:31:56;98992.38;;;16.56;71.80
47430;BME280;33181;49.246;7.372;2022-08-30T03:34:24;98992.50;;;16.55;71.75
47430;BME280;33181;49.246;7.372;2022-08-30T03:36:52;98982.38;;;16.50;72.07
47430;BME280;33181;49.246;7.372;2022-08-30T03:39:19;98980.03;;;16.47;72.15
47430;BME280;33181;49.246;7.372;2022-08-30T03:41:45;98981.69;;;16.48;72.06
47430;BME280;33181;49.246;7.372;2022-08-30T03:44:11;98979.72;;;16.50;72.02
47430;BME280;33181;49.246;7.372;2022-08-30T03:46:38;98978.09;;;16.49;72.01
47430;BME280;33181;49.246;7.372;2022-08-30T03:49:04;98980.19;;;16.45;72.23
47430;BME280;33181;49.246;7.372;2022-08-30T03:51:30;98984.94;;;16.34;72.21
47430;BME280;33181;49.246;7.372;2022-08-30T03:53:57;98984.13;;;16.15;72.92
47430;BME280;33181;49.246;7.372;2022-08-30T03:56:23;98982.09;;;16.09;73.14
47430;BME280;33181;49.246;7.372;2022-08-30T03:58:49;98985.72;;;15.90;73.83
47430;BME280;33181;49.246;7.372;2022-08-30T04:01:16;98980.81;;;15.78;74.92
47430;BME280;33181;49.246;7.372;2022-08-30T04:03:42;98981.88;;;15.67;75.15
47430;BME280;33181;49.246;7.372;2022-08-30T04:06:08;98981.72;;;15.68;75.42
47430;BME280;33181;49.246;7.372;2022-08-30T04:08:34;98983.47;;;15.78;75.09
47430;BME280;33181;49.246;7.372;2022-08-30T04:11:00;98982.16;;;15.82;74.90
47430;BME280;33181;49.246;7.372;2022-08-30T04:13:27;98991.03;;;15.90;74.55
47430;BME280;33181;49.246;7.372;2022-08-30T04:15:53;98978.00;;;15.97;74.32
47430;BME280;33181;49.246;7.372;2022-08-30T04:18:19;98982.00;;;16.01;74.17
47430;BME280;33181;49.246;7.372;2022-08-30T04:20:44;98979.22;;;16.03;73.71
47430;BME280;33181;49.246;7.372;2022-08-30T04:23:12;98978.38;;;16.02;73.70
47430;BME280;33181;49.246;7.372;2022-08-30T04:25:39;98979.00;;;15.96;73.24
47430;BME280;33181;49.246;7.372;2022-08-30T04:28:09;98986.19;;;15.86;73.48
47430;BME280;33181;49.246;7.372;2022-08-30T04:30:42;98991.50;;;15.86;73.51
47430;BME280;33181;49.246;7.372;2022-08-30T04:33:10;98998.16;;;15.90;73.53
47430;BME280;33181;49.246;7.372;2022-08-30T04:35:36;98993.16;;;15.87;73.60
47430;BME280;33181;49.246;7.372;2022-08-30T04:38:04;99002.63;;;15.89;73.39
47430;BME280;33181;49.246;7.372;2022-08-30T04:40:30;99011.75;;;15.95;73.26
47430;BME280;33181;49.246;7.372;2022-08-30T04:42:55;99008.50;;;16.01;73.05
47430;BME280;33181;49.246;7.372;2022-08-30T04:45:21;99002.69;;;15.97;73.01
47430;BME280;33181;49.246;7.372;2022-08-30T04:47:47;98998.16;;;15.90;73.17
47430;BME280;33181;49.246;7.372;2022-08-30T04:50:17;99003.97;;;15.75;73.81
47430;BME280;33181;49.246;7.372;2022-08-30T04:52:43;99005.41;;;15.70;74.25
47430;BME280;33181;49.246;7.372;2022-08-30T04:55:10;99009.78;;;15.79;74.08
47430;BME280;33181;49.246;7.372;2022-08-30T04:57:37;99008.66;;;15.82;74.05
47430;BME280;33181;49.246;7.372;2022-08-30T05:00:10;99006.41;;;15.87;73.78
47430;BME280;33181;49.246;7.372;2022-08-30T05:02:39;99012.53;;;15.87;73.83
47430;BME280;33181;49.246;7.372;2022-08-30T05:05:06;99005.63;;;15.94;73.69
47430;BME280;33181;49.246;7.372;2022-08-30T05:07:51;98999.66;;;15.92;73.59
47430;BME280;33181;49.246;7.372;2022-08-30T05:10:17;98998.06;;;15.82;73.68
47430;BME280;33181;49.246;7.372;2022-08-30T05:12:43;98998.75;;;16.02;74.15
47430;BME280;33181;49.246;7.372;2022-08-30T05:15:10;99013.22;;;16.51;73.89
47430;BME280;33181;49.246;7.372;2022-08-30T05:17:40;99005.59;;;17.00;71.69
47430;BME280;33181;49.246;7.372;2022-08-30T05:20:09;99011.59;;;17.53;69.64
47430;BME280;33181;49.246;7.372;2022-08-30T05:22:37;99009.88;;;17.86;67.73
47430;BME280;33181;49.246;7.372;2022-08-30T05:25:05;99010.22;;;18.08;65.02
47430;BME280;33181;49.246;7.372;2022-08-30T05:27:31;99012.22;;;18.55;64.42
47430;BME280;33181;49.246;7.372;2022-08-30T05:29:57;99014.34;;;18.92;63.01
47430;BME280;33181;49.246;7.372;2022-08-30T05:32:23;99014.66;;;19.36;61.90
47430;BME280;33181;49.246;7.372;2022-08-30T05:34:49;99022.28;;;19.79;60.57
47430;BME280;33181;49.246;7.372;2022-08-30T05:37:15;99020.78;;;20.30;59.29
47430;BME280;33181;49.246;7.372;2022-08-30T05:39:41;99028.06;;;20.89;57.88
47430;BME280;33181;49.246;7.372;2022-08-30T05:42:06;99026.88;;;21.51;56.51
47430;BME280;33181;49.246;7.372;2022-08-30T05:44:33;99020.69;;;22.08;54.63
47430;BME280;33181;49.246;7.372;2022-08-30T05:46:59;99025.59;;;22.48;52.88
47430;BME280;33181;49.246;7.372;2022-08-30T05:49:25;99026.81;;;23.01;51.90
47430;BME280;33181;49.246;7.372;2022-08-30T05:51:50;99023.88;;;23.24;50.96
47430;BME280;33181;49.246;7.372;2022-08-30T05:54:16;99021.91;;;23.46;50.59
47430;BME280;33181;49.246;7.372;2022-08-30T05:56:44;99026.72;;;23.64;50.27
47430;BME280;33181;49.246;7.372;2022-08-30T05:59:11;99025.94;;;23.77;49.84
47430;BME280;33181;49.246;7.372;2022-08-30T06:01:44;99026.59;;;23.79;49.15
47430;BME280;33181;49.246;7.372;2022-08-30T06:04:11;99026.41;;;23.87;48.50
47430;BME280;33181;49.246;7.372;2022-08-30T06:06:40;99019.84;;;23.96;48.33
47430;BME280;33181;49.246;7.372;2022-08-30T06:09:08;99019.22;;;24.01;48.12
47430;BME280;33181;49.246;7.372;2022-08-30T06:11:35;99016.91;;;23.85;48.55
47430;BME280;33181;49.246;7.372;2022-08-30T06:14:02;99014.88;;;23.93;48.17
47430;BME280;33181;49.246;7.372;2022-08-30T06:16:28;99021.66;;;23.96;48.76
47430;BME280;33181;49.246;7.372;2022-08-30T06:18:56;99025.00;;;24.11;48.09
47430;BME280;33181;49.246;7.372;2022-08-30T06:21:29;99022.13;;;24.13;48.40
47430;BME280;33181;49.246;7.372;2022-08-30T06:23:56;99031.41;;;24.23;48.79
47430;BME280;33181;49.246;7.372;2022-08-30T06:26:23;99016.13;;;24.24;48.45
47430;BME280;33181;49.246;7.372;2022-08-30T06:28:49;99024.41;;;24.22;48.17
47430;BME280;33181;49.246;7.372;2022-08-30T06:31:17;99014.91;;;24.20;48.05
47430;BME280;33181;49.246;7.372;2022-08-30T06:33:43;99017.34;;;24.15;48.47
47430;BME280;33181;49.246;7.372;2022-08-30T06:36:14;99018.00;;;24.23;48.38
47430;BME280;33181;49.246;7.372;2022-08-30T06:38:41;99016.56;;;24.41;47.92
47430;BME280;33181;49.246;7.372;2022-08-30T06:41:14;99014.94;;;24.60;47.88
47430;BME280;33181;49.246;7.372;2022-08-30T06:43:40;99016.16;;;24.77;47.26
47430;BME280;33181;49.246;7.372;2022-08-30T06:46:13;99023.38;;;24.83;46.89
47430;BME280;33181;49.246;7.372;2022-08-30T06:48:40;99029.56;;;24.90;46.87
47430;BME280;33181;49.246;7.372;2022-08-30T06:51:06;99028.97;;;24.88;46.62
47430;BME280;33181;49.246;7.372;2022-08-30T06:53:32;99029.56;;;24.90;46.75
47430;BME280;33181;49.246;7.372;2022-08-30T06:56:03;99033.50;;;24.94;46.42
47430;BME280;33181;49.246;7.372;2022-08-30T06:58:30;99039.66;;;25.15;46.03
47430;BME280;33181;49.246;7.372;2022-08-30T07:00:57;99033.84;;;25.25;45.92
47430;BME280;33181;49.246;7.372;2022-08-30T07:03:23;99029.69;;;25.35;45.72
47430;BME280;33181;49.246;7.372;2022-08-30T07:05:52;99029.00;;;25.47;45.58
47430;BME280;33181;49.246;7.372;2022-08-30T07:08:19;99028.13;;;25.59;45.16
47430;BME280;33181;49.246;7.372;2022-08-30T07:10:44;99029.53;;;25.69;44.62
47430;BME280;33181;49.246;7.372;2022-08-30T07:13:10;99029.59;;;26.00;44.45
47430;BME280;33181;49.246;7.372;2022-08-30T07:15:41;99025.50;;;26.23;44.01
47430;BME280;33181;49.246;7.372;2022-08-30T07:18:09;99026.53;;;26.53;43.51
47430;BME280;33181;49.246;7.372;2022-08-30T07:20:54;99027.28;;;26.67;42.72
47430;BME280;33181;49.246;7.372;2022-08-30T07:23:20;99028.28;;;26.66;42.52
47430;BME280;33181;49.246;7.372;2022-08-30T07:25:46;99030.81;;;26.36;42.73
47430;BME280;33181;49.246;7.372;2022-08-30T07:28:12;99028.81;;;26.25;43.41
47430;BME280;33181;49.246;7.372;2022-08-30T07:30:40;99028.19;;;26.54;43.27
47430;BME280;33181;49.246;7.372;2022-08-30T07:33:07;99023.53;;;26.68;42.47
47430;BME280;33181;49.246;7.372;2022-08-30T07:35:32;99028.13;;;27.04;42.50
47430;BME280;33181;49.246;7.372;2022-08-30T07:37:58;99027.00;;;26.94;42.44
47430;BME280;33181;49.246;7.372;2022-08-30T07:40:25;99032.66;;;26.10;43.13
47430;BME280;33181;49.246;7.372;2022-08-30T07:42:51;99018.88;;;25.94;43.69
47430;BME280;33181;49.246;7.372;2022-08-30T07:45:17;99028.19;;;26.23;44.10
47430;BME280;33181;49.246;7.372;2022-08-30T07:47:44;99027.00;;;26.44;44.27
47430;BME280;33181;49.246;7.372;2022-08-30T07:50:10;99029.91;;;26.74;43.43
47430;BME280;33181;49.246;7.372;2022-08-30T07:52:36;99031.66;;;26.87;43.22
47430;BME280;33181;49.246;7.372;2022-08-30T07:55:05;99032.56;;;26.99;43.02
47430;BME280;33181;49.246;7.372;2022-08-30T07:57:31;99036.00;;;27.06;42.96
47430;BME280;33181;49.246;7.372;2022-08-30T07:59:59;99031.81;;;27.10;42.93
47430;BME280;33181;49.246;7.372;2022-08-30T08:02:25;99030.38;;;27.08;43.02
47430;BME280;33181;49.246;7.372;2022-08-30T08:04:51;99034.34;;;26.87;43.76
47430;BME280;33181;49.246;7.372;2022-08-30T08:07:17;99030.56;;;26.69;42.92
47430;BME280;33181;49.246;7.372;2022-08-30T08:09:43;99033.44;;;26.43;43.46
47430;BME280;33181;49.246;7.372;2022-08-30T08:12:09;99039.06;;;26.09;43.51
47430;BME280;33181;49.246;7.372;2022-08-30T08:14:35;99034.63;;;25.90;44.00
47430;BME280;33181;49.246;7.372;2022-08-30T08:17:01;99039.19;;;25.89;43.68
47430;BME280;33181;49.246;7.372;2022-08-30T08:19:28;99038.91;;;26.04;44.13
47430;BME280;33181;49.246;7.372;2022-08-30T08:21:54;99036.03;;;26.31;43.35
47430;BME280;33181;49.246;7.372;2022-08-30T08:24:22;99033.25;;;26.12;43.76
47430;BME280;33181;49.246;7.372;2022-08-30T08:26:48;99028.66;;;26.51;43.75
47430;BME280;33181;49.246;7.372;2022-08-30T08:29:14;99031.06;;;27.03;43.03
47430;BME280;33181;49.246;7.372;2022-08-30T08:31:41;99030.53;;;26.94;42.23
47430;BME280;33181;49.246;7.372;2022-08-30T08:34:07;99027.44;;;26.91;42.33
47430;BME280;33181;49.246;7.372;2022-08-30T08:36:34;99031.75;;;26.73;42.37
47430;BME280;33181;49.246;7.372;2022-08-30T08:39:03;99029.78;;;26.62;43.07
47430;BME280;33181;49.246;7.372;2022-08-30T08:41:49;99033.56;;;26.79;43.01
47430;BME280;33181;49.246;7.372;2022-08-30T08:47:55;99029.50;;;27.99;40.92
47430;BME280;33181;49.246;7.372;2022-08-30T08:50:15;99028.72;;;28.64;40.27
47430;BME280;33181;49.246;7.372;2022-08-30T08:52:46;99026.09;;;29.28;39.46
47430;BME280;33181;49.246;7.372;2022-08-30T08:55:32;99020.50;;;29.58;39.36
47430;BME280;33181;49.246;7.372;2022-08-30T08:58:00;99018.53;;;29.82;39.23
47430;BME280;33181;49.246;7.372;2022-08-30T09:00:26;99017.59;;;29.48;38.83
47430;BME280;33181;49.246;7.372;2022-08-30T09:03:01;99015.88;;;29.59;39.18
47430;BME280;33181;49.246;7.372;2022-08-30T09:05:35;99008.53;;;29.83;38.68
47430;BME280;33181;49.246;7.372;2022-08-30T09:08:09;99010.13;;;29.67;38.75
47430;BME280;33181;49.246;7.372;2022-08-30T09:10:36;99003.75;;;29.32;39.69
47430;BME280;33181;49.246;7.372;2022-08-30T09:13:02;98998.38;;;28.62;39.81
47430;BME280;33181;49.246;7.372;2022-08-30T09:15:30;99003.69;;;28.57;40.21
47430;BME280;33181;49.246;7.372;2022-08-30T09:18:02;98997.09;;;28.76;40.33
47430;BME280;33181;49.246;7.372;2022-08-30T09:20:39;99001.19;;;28.44;40.89
47430;BME280;33181;49.246;7.372;2022-08-30T09:28:31;98989.94;;;28.82;41.36
47430;BME280;33181;49.246;7.372;2022-08-30T09:31:19;98993.06;;;29.54;39.56
47430;BME280;33181;49.246;7.372;2022-08-30T09:34:07;98985.81;;;30.00;39.40
47430;BME280;33181;49.246;7.372;2022-08-30T09:36:45;98978.63;;;30.23;38.77
47430;BME280;33181;49.246;7.372;2022-08-30T09:39:17;98980.59;;;29.53;40.13
47430;BME280;33181;49.246;7.372;2022-08-30T09:41:47;98989.56;;;28.55;40.83
47430;BME280;33181;49.246;7.372;2022-08-30T09:44:18;98979.66;;;28.37;41.16
47430;BME280;33181;49.246;7.372;2022-08-30T09:46:52;98979.34;;;28.57;41.11
47430;BME280;33181;49.246;7.372;2022-08-30T09:49:39;98971.63;;;29.24;40.59
47430;BME280;33181;49.246;7.372;2022-08-30T09:52:43;98969.06;;;30.03;40.30
47430;BME280;33181;49.246;7.372;2022-08-30T09:55:26;98965.91;;;29.95;39.81
47430;BME280;33181;49.246;7.372;2022-08-30T10:06:51;98955.88;;;29.62;40.33
47430;BME280;33181;49.246;7.372;2022-08-30T10:09:45;98957.94;;;29.60;39.92
47430;BME280;33181;49.246;7.372;2022-08-30T10:12:29;98961.41;;;30.00;39.76
47430;BME280;33181;49.246;7.372;2022-08-30T10:15:30;98951.66;;;30.50;39.12
47430;BME280;33181;49.246;7.372;2022-08-30T10:18:23;98956.00;;;30.51;38.93
47430;BME280;33181;49.246;7.372;2022-08-30T10:21:32;98952.50;;;30.34;39.31
47430;BME280;33181;49.246;7.372;2022-08-30T10:24:10;98947.59;;;30.31;39.07
47430;BME280;33181;49.246;7.372;2022-08-30T10:26:49;98941.44;;;30.74;38.99
47430;BME280;33181;49.246;7.372;2022-08-30T10:29:28;98938.00;;;31.01;38.64
47430;BME280;33181;49.246;7.372;2022-08-30T10:35:03;98942.84;;;30.99;38.30
47430;BME280;33181;49.246;7.372;2022-08-30T10:37:34;98943.22;;;30.85;38.89
47430;BME280;33181;49.246;7.372;2022-08-30T10:40:36;98939.78;;;30.34;39.88
47430;BME280;33181;49.246;7.372;2022-08-30T10:49:01;98931.94;;;30.04;40.04
47430;BME280;33181;49.246;7.372;2022-08-30T10:51:45;98932.53;;;30.23;40.06
47430;BME280;33181;49.246;7.372;2022-08-30T10:56:56;98933.72;;;29.82;40.54
47430;BME280;33181;49.246;7.372;2022-08-30T10:59:22;98926.44;;;30.33;40.27
47430;BME280;33181;49.246;7.372;2022-08-30T11:02:46;98913.63;;;31.28;38.61
47430;BME280;33181;49.246;7.372;2022-08-30T11:05:49;98923.28;;;31.95;37.45
47430;BME280;33181;49.246;7.372;2022-08-30T11:14:21;98925.63;;;30.49;39.32
47430;BME280;33181;49.246;7.372;2022-08-30T11:16:50;98926.31;;;30.22;39.39
47430;BME280;33181;49.246;7.372;2022-08-30T11:19:37;98919.41;;;30.70;39.14
47430;BME280;33181;49.246;7.372;2022-08-30T11:22:15;98920.63;;;30.80;39.10
47430;BME280;33181;49.246;7.372;2022-08-30T11:27:54;98912.31;;;31.57;38.10
47430;BME280;33181;49.246;7.372;2022-08-30T11:33:39;98922.25;;;30.42;39.04
47430;BME280;33181;49.246;7.372;2022-08-30T11:36:07;98914.34;;;30.96;39.35
47430;BME280;33181;49.246;7.372;2022-08-30T11:41:10;98908.25;;;31.33;38.31
47430;BME280;33181;49.246;7.372;2022-08-30T11:46:34;98911.09;;;31.43;38.38
47430;BME280;33181;49.246;7.372;2022-08-30T12:03:01;98895.50;;;29.78;41.05
47430;BME280;33181;49.246;7.372;2022-08-30T12:08:07;98901.94;;;29.03;42.36
47430;BME280;33181;49.246;7.372;2022-08-30T12:10:42;98899.63;;;29.23;41.41
47430;BME280;33181;49.246;7.372;2022-08-30T12:13:09;98895.66;;;29.43;41.44
47430;BME280;33181;49.246;7.372;2022-08-30T12:18:29;98884.44;;;29.22;41.91
47430;BME280;33181;49.246;7.372;2022-08-30T12:21:01;98879.81;;;29.34;41.47
47430;BME280;33181;49.246;7.372;2022-08-30T12:29:04;98882.13;;;29.60;41.32
47430;BME280;33181;49.246;7.372;2022-08-30T12:31:30;98880.81;;;30.08;40.46
47430;BME280;33181;49.246;7.372;2022-08-30T12:33:59;98884.66;;;30.29;39.88
47430;BME280;33181;49.246;7.372;2022-08-30T12:36:37;98868.09;;;30.47;39.70
47430;BME280;33181;49.246;7.372;2022-08-30T12:39:16;98866.50;;;30.29;39.98
47430;BME280;33181;49.246;7.372;2022-08-30T12:41:43;98866.25;;;30.31;39.41
47430;BME280;33181;49.246;7.372;2022-08-30T12:44:14;98865.91;;;30.66;39.49
47430;BME280;33181;49.246;7.372;2022-08-30T12:46:44;98860.41;;;30.78;39.33
47430;BME280;33181;49.246;7.372;2022-08-30T12:49:15;98858.09;;;30.69;39.60
47430;BME280;33181;49.246;7.372;2022-08-30T12:51:43;98862.78;;;30.35;39.76
47430;BME280;33181;49.246;7.372;2022-08-30T12:54:25;98853.22;;;29.94;40.36
47430;BME280;33181;49.246;7.372;2022-08-30T12:57:03;98855.19;;;29.98;40.30
47430;BME280;33181;49.246;7.372;2022-08-30T12:59:49;98858.88;;;30.09;40.07
47430;BME280;33181;49.246;7.372;2022-08-30T13:02:21;98855.28;;;29.87;41.31
47430;BME280;33181;49.246;7.372;2022-08-30T13:04:49;98856.59;;;29.84;41.36
47430;BME280;33181;49.246;7.372;2022-08-30T13:07:33;98861.84;;;29.91;41.11
47430;BME280;33181;49.246;7.372;2022-08-30T13:10:14;98859.78;;;30.15;40.42
47430;BME280;33181;49.246;7.372;2022-08-30T13:12:59;98850.66;;;30.60;40.26
47430;BME280;33181;49.246;7.372;2022-08-30T13:15:33;98849.03;;;30.81;39.70
47430;BME280;33181;49.246;7.372;2022-08-30T13:18:28;98842.59;;;30.26;39.65
47430;BME280;33181;49.246;7.372;2022-08-30T13:23:47;98844.47;;;30.64;39.28
47430;BME280;33181;49.246;7.372;2022-08-30T13:26:13;98844.59;;;30.75;39.81
47430;BME280;33181;49.246;7.372;2022-08-30T13:28:57;98845.97;;;30.33;39.90
47430;BME280;33181;49.246;7.372;2022-08-30T13:31:24;98832.59;;;30.27;40.49
47430;BME280;33181;49.246;7.372;2022-08-30T13:33:51;98829.88;;;30.48;39.95
47430;BME280;33181;49.246;7.372;2022-08-30T13:36:26;98832.38;;;30.72;39.49
47430;BME280;33181;49.246;7.372;2022-08-30T13:38:53;98831.34;;;30.56;39.23
47430;BME280;33181;49.246;7.372;2022-08-30T13:41:19;98829.19;;;29.81;40.13
47430;BME280;33181;49.246;7.372;2022-08-30T13:43:46;98823.34;;;29.72;41.15
47430;BME280;33181;49.246;7.372;2022-08-30T13:46:14;98825.72;;;29.85;40.39
47430;BME280;33181;49.246;7.372;2022-08-30T13:48:41;98822.25;;;30.07;40.38
47430;BME280;33181;49.246;7.372;2022-08-30T13:51:07;98823.22;;;30.34;40.03
47430;BME280;33181;49.246;7.372;2022-08-30T13:53:34;98820.81;;;30.38;39.59
47430;BME280;33181;49.246;7.372;2022-08-30T13:56:02;98823.97;;;30.13;39.44
47430;BME280;33181;49.246;7.372;2022-08-30T13:58:28;98819.81;;;29.88;40.19
47430;BME280;33181;49.246;7.372;2022-08-30T14:00:54;98816.84;;;29.56;40.46
47430;BME280;33181;49.246;7.372;2022-08-30T14:03:20;98819.69;;;29.32;40.90
47430;BME280;33181;49.246;7.372;2022-08-30T14:05:46;98814.78;;;29.29;40.65
47430;BME280;33181;49.246;7.372;2022-08-30T14:08:16;98811.41;;;29.39;40.55
47430;BME280;33181;49.246;7.372;2022-08-30T14:10:43;98816.66;;;29.46;40.61
47430;BME280;33181;49.246;7.372;2022-08-30T14:13:09;98807.09;;;29.55;40.27
47430;BME280;33181;49.246;7.372;2022-08-30T14:15:37;98800.47;;;29.79;39.29
47430;BME280;33181;49.246;7.372;2022-08-30T14:18:04;98794.00;;;29.64;39.78
47430;BME280;33181;49.246;7.372;2022-08-30T14:20:30;98797.31;;;30.05;40.04
47430;BME280;33181;49.246;7.372;2022-08-30T14:22:56;98791.09;;;30.26;38.65
47430;BME280;33181;49.246;7.372;2022-08-30T14:25:22;98790.56;;;30.46;38.92
47430;BME280;33181;49.246;7.372;2022-08-30T14:27:48;98784.25;;;30.84;38.52
47430;BME280;33181;49.246;7.372;2022-08-30T14:30:14;98785.09;;;31.17;37.27